Schedule Details


Flight Number: CTN4467
Departure: Zurich (LSZH) at 15:05
Arrival: Cilipi (LDDU) at 17:00
Route: DEGES?N871?MADEB?N606?ELMEM?L607?GEDSO?DCT?TUTIV?DCT?GEMKA?L607?NERRA

Weather Information
LSZH 221620Z VRB02KT CAVOK 24/14 Q1010 NOSIG
LDDU 221600Z 13008KT 100V160 CAVOK 20/12 Q1019 NOSIG
Schedule Frequency

Route Map